Time;durP1;ratioP1;P1;durP2;ratioP2;P2;SDS_P1;SDS_P2;PMS_P1;PMS_P2;Temp;Humidity;BMP_temperature;BMP_pressure;BME280_temperature;BME280_humidity;BME280_pressure;Samples;Min_cycle;Max_cycle;Signal;HPM_P1;HPM_P2
2021/11/17 02:27:14;;;;;;;21.40;12.20;;;;;;;6.89;74.33;100227.81;4821431;29;20046;-61
2021/11/17 02:30:08;;;;;;;31.52;13.80;;;;;;;6.93;74.22;100209.31;4825235;29;20153;-61
2021/11/17 02:32:54;;;;;;;27.80;13.80;;;;;;;6.92;74.43;100207.59;4824719;29;20069;-61
2021/11/17 02:35:49;;;;;;;28.60;13.48;;;;;;;6.90;74.55;100209.25;4826185;29;20168;-61
2021/11/17 02:38:41;;;;;;;27.77;14.25;;;;;;;6.92;74.83;100208.44;4824425;29;20083;-61
2021/11/17 02:41:28;;;;;;;28.52;13.77;;;;;;;6.96;73.96;100205.16;4824325;29;20047;-62
2021/11/17 02:44:13;;;;;;;28.67;13.65;;;;;;;6.97;74.02;100208.53;4833898;29;20042;-61
2021/11/17 02:46:56;;;;;;;28.80;13.63;;;;;;;6.96;74.04;100204.31;4830266;29;20433;-61
2021/11/17 02:49:44;;;;;;;26.00;13.80;;;;;;;6.97;74.39;100206.88;4838470;29;20086;-61
2021/11/17 02:52:31;;;;;;;27.52;13.00;;;;;;;6.96;74.27;100197.53;4839996;29;20073;-61
2021/11/17 02:55:31;;;;;;;19.52;10.95;;;;;;;6.98;74.12;100197.59;4832748;29;20394;-65
2021/11/17 02:58:22;;;;;;;23.88;13.13;;;;;;;7.03;73.52;100206.16;4814548;29;20069;-61
2021/11/17 03:01:01;;;;;;;;;;;;;;;7.07;73.65;100197.78;4811843;29;20519;-63
2021/11/17 03:03:45;;;;;;;25.33;13.45;;;;;;;7.01;73.57;100187.47;4810202;29;19947;-61
2021/11/17 03:06:28;;;;;;;26.88;13.80;;;;;;;7.07;73.81;100187.63;4811003;29;20058;-63
2021/11/17 03:09:23;;;;;;;23.27;10.50;;;;;;;7.09;73.18;100193.59;4816463;29;20401;-61
2021/11/17 03:12:10;;;;;;;28.33;13.68;;;;;;;7.07;73.18;100197.78;4825225;29;20049;-61
2021/11/17 03:14:58;;;;;;;25.77;10.32;;;;;;;7.06;73.47;100190.97;4811181;29;20074;-60
2021/11/17 03:17:47;;;;;;;24.50;12.55;;;;;;;7.06;73.39;100185.91;4808402;29;20050;-61
2021/11/17 03:20:43;;;;;;;25.50;13.60;;;;;;;7.08;73.06;100179.19;4807467;29;20057;-62
2021/11/17 03:23:28;;;;;;;25.60;13.75;;;;;;;7.09;73.38;100185.97;4814397;29;20050;-62
2021/11/17 03:26:17;;;;;;;27.92;14.15;;;;;;;7.13;73.98;100188.59;4817497;29;21603;-61
2021/11/17 03:29:04;;;;;;;27.85;13.68;;;;;;;7.11;73.26;100184.31;4813843;29;20111;-61
2021/11/17 03:32:00;;;;;;;26.60;13.65;;;;;;;7.10;73.50;100187.69;4824467;29;20050;-61
2021/11/17 03:34:49;;;;;;;30.08;14.18;;;;;;;7.09;73.36;100185.97;4828632;29;20069;-62
2021/11/17 03:37:50;;;;;;;27.00;14.55;;;;;;;7.08;73.75;100181.75;4812095;29;20413;-61
2021/11/17 03:40:39;;;;;;;26.90;13.20;;;;;;;7.10;72.98;100177.56;4822303;29;20156;-61
2021/11/17 03:43:27;;;;;;;24.45;13.05;;;;;;;7.13;73.83;100177.59;4815611;29;20061;-61
2021/11/17 03:46:23;;;;;;;26.70;12.68;;;;;;;7.16;74.06;100162.44;4815378;29;20099;-61
2021/11/17 03:49:13;;;;;;;21.60;10.48;;;;;;;7.18;72.73;100181.94;4814991;29;20515;-61
2021/11/17 03:52:14;;;;;;;25.23;12.73;;;;;;;7.15;73.51;100175.97;4821838;29;20046;-61
2021/11/17 03:55:09;;;;;;;28.27;13.93;;;;;;;7.16;72.80;100167.50;4792194;29;21604;-61
2021/11/17 03:57:53;;;;;;;34.15;14.18;;;;;;;7.22;73.25;100167.66;4790446;29;20157;-61
2021/11/17 04:00:47;;;;;;;28.38;14.25;;;;;;;7.20;73.26;100169.28;4802738;29;20089;-61
2021/11/17 04:03:37;;;;;;;27.10;13.27;;;;;;;7.22;73.45;100167.66;4788467;29;20054;-61
2021/11/17 04:06:21;;;;;;;32.58;15.10;;;;;;;7.18;73.25;100170.94;4791536;29;20051;-61
2021/11/17 04:09:02;;;;;;;27.17;13.90;;;;;;;7.13;73.02;100173.38;4800621;29;20534;-61
2021/11/17 04:11:45;;;;;;;25.63;12.32;;;;;;;7.15;73.23;100175.97;4788195;29;20133;-64
2021/11/17 04:14:27;;;;;;;25.65;13.55;;;;;;;7.18;72.79;100168.38;4800383;29;20050;-61
2021/11/17 04:17:11;;;;;;;18.98;9.93;;;;;;;7.20;72.59;100170.13;4798393;29;20051;-61
2021/11/17 04:19:51;;;;;;;28.52;13.07;;;;;;;7.19;72.79;100180.28;4788066;29;20047;-62
2021/11/17 04:22:44;;;;;;;27.10;13.02;;;;;;;7.17;72.97;100179.38;4785880;29;20051;-61
2021/11/17 04:25:37;;;;;;;26.95;13.07;;;;;;;7.15;72.89;100174.25;4786752;29;20414;-61
2021/11/17 04:28:30;;;;;;;32.85;10.93;;;;;;;7.17;73.96;100169.25;4794880;29;20498;-61
2021/11/17 04:31:27;;;;;;;27.13;13.80;;;;;;;7.17;72.80;100184.47;4792235;29;20040;-61
2021/11/17 04:34:24;;;;;;;26.70;13.40;;;;;;;7.23;73.17;100180.38;4780716;30;20129;-61
2021/11/17 04:37:17;;;;;;;23.75;12.25;;;;;;;7.27;72.94;100181.31;4808809;29;20054;-61
2021/11/17 04:40:09;;;;;;;25.98;12.75;;;;;;;7.25;73.09;100177.84;4806589;29;20046;-61
2021/11/17 04:43:00;;;;;;;24.92;13.13;;;;;;;7.25;73.73;100175.31;4812072;29;20073;-61
2021/11/17 04:45:46;;;;;;;24.40;12.88;;;;;;;7.24;73.42;100181.22;4816428;29;20047;-62
2021/11/17 04:48:31;;;;;;;21.38;10.60;;;;;;;7.23;73.83;100184.56;4811276;29;20176;-61
2021/11/17 04:51:19;;;;;;;24.30;12.27;;;;;;;7.22;73.63;100172.72;4811638;29;20050;-61
2021/11/17 04:54:05;;;;;;;22.02;10.93;;;;;;;7.24;73.70;100171.06;4819393;29;20050;-65
2021/11/17 04:56:50;;;;;;;22.30;11.18;;;;;;;7.24;73.02;100169.41;4808618;29;20157;-61
2021/11/17 04:59:45;;;;;;;14.70;7.20;;;;;;;7.24;73.45;100168.53;4812405;29;20120;-61
2021/11/17 05:02:38;;;;;;;21.80;11.60;;;;;;;7.25;73.74;100172.78;4804480;29;20053;-61
2021/11/17 05:05:31;;;;;;;20.15;10.43;;;;;;;7.25;73.68;100167.69;4807594;29;20039;-61
2021/11/17 05:08:12;;;;;;;27.08;11.32;;;;;;;7.26;73.88;100165.19;4806036;29;20043;-61
2021/11/17 05:10:56;;;;;;;22.35;11.43;;;;;;;7.28;73.67;100167.75;4809858;29;20046;-61
2021/11/17 05:13:38;;;;;;;20.48;11.57;;;;;;;7.23;73.38;100169.34;4819951;29;20093;-61
2021/11/17 05:16:24;;;;;;;22.42;12.98;;;;;;;7.21;73.69;100160.84;4819555;29;20050;-62
2021/11/17 05:19:02;;;;;;;22.88;12.13;;;;;;;7.22;73.52;100160.03;4806867;29;20055;-61
2021/11/17 05:21:55;;;;;;;22.38;12.10;;;;;;;7.25;73.91;100167.69;4807805;29;20047;-61
2021/11/17 05:25:01;;;;;;;27.80;11.25;;;;;;;7.27;73.74;100166.91;4820932;29;20065;-61
2021/11/17 05:27:51;;;;;;;19.17;9.98;;;;;;;7.25;73.54;100167.69;4816248;29;20066;-61
2021/11/17 05:30:43;;;;;;;21.65;9.30;;;;;;;7.22;73.56;100155.78;4821559;29;20046;-63
2021/11/17 05:33:28;;;;;;;22.60;12.50;;;;;;;7.24;73.54;100163.47;4809705;29;20051;-61
2021/11/17 05:36:12;;;;;;;22.77;11.50;;;;;;;7.24;73.83;100166.84;4808826;29;20129;-61
2021/11/17 05:38:57;;;;;;;24.92;12.50;;;;;;;7.26;74.18;100169.41;4817208;29;20081;-61
2021/11/17 05:41:45;;;;;;;19.95;11.52;;;;;;;7.24;73.67;100171.06;4822123;29;20494;-61
2021/11/17 05:44:27;;;;;;;19.52;10.07;;;;;;;7.16;74.13;100177.66;4812770;29;20051;-61
2021/11/17 05:47:09;;;;;;;21.33;11.20;;;;;;;7.15;73.43;100178.50;4810543;29;20081;-61
2021/11/17 05:49:55;;;;;;;20.92;10.45;;;;;;;7.18;74.01;100171.78;4814625;29;20050;-61
2021/11/17 05:52:51;;;;;;;22.92;11.98;;;;;;;7.18;73.92;100181.09;4814104;29;20050;-61
2021/11/17 05:55:36;;;;;;;22.95;12.27;;;;;;;7.16;73.93;100187.81;4819373;29;20050;-62
2021/11/17 05:58:21;;;;;;;22.27;11.75;;;;;;;7.14;74.22;100179.31;4819123;29;20740;-61
2021/11/17 06:01:10;;;;;;;24.17;11.10;;;;;;;7.13;74.24;100182.66;4815445;29;20054;-61
2021/11/17 06:03:58;;;;;;;23.38;12.05;;;;;;;7.13;74.07;100182.66;4813393;29;20058;-61
2021/11/17 06:06:36;;;;;;;30.63;14.07;;;;;;;7.08;74.66;100185.09;4815592;29;20054;-61
2021/11/17 06:09:05;;;;;;;24.42;12.68;;;;;;;7.10;74.41;100187.69;4809135;29;20486;-64
2021/11/17 06:11:42;;;;;;;24.13;12.40;;;;;;;7.10;74.66;100187.69;4821146;29;20035;-61
2021/11/17 06:14:17;;;;;;;28.42;13.38;;;;;;;7.12;74.08;100189.44;4823503;29;20042;-61
2021/11/17 06:16:51;;;;;;;24.58;13.20;;;;;;;7.12;74.55;100191.13;4814877;29;20085;-61
2021/11/17 06:19:26;;;;;;;26.77;12.85;;;;;;;7.07;74.81;100193.56;4822033;29;20057;-61
2021/11/17 06:21:56;;;;;;;23.02;9.77;;;;;;;7.09;74.68;100207.13;4821150;29;20438;-61
2021/11/17 06:24:30;;;;;;;21.73;10.07;;;;;;;7.12;74.22;100191.13;4819029;29;20062;-61
2021/11/17 06:27:03;;;;;;;25.92;13.30;;;;;;;7.14;74.18;100205.56;4817337;29;20065;-61
2021/11/17 06:29:36;;;;;;;24.55;12.95;;;;;;;7.19;74.32;100213.28;4816849;29;20050;-61
2021/11/17 06:32:11;;;;;;;23.83;12.40;;;;;;;7.15;74.97;100211.50;4808597;29;20050;-61
2021/11/17 06:34:41;;;;;;;24.30;12.05;;;;;;;7.08;74.64;100210.50;4816166;29;20046;-63
2021/11/17 06:37:13;;;;;;;28.75;13.50;;;;;;;7.05;74.62;100212.13;4811938;29;20057;-61
2021/11/17 06:39:44;;;;;;;23.92;13.18;;;;;;;7.09;74.41;100213.88;4811392;29;20121;-61
2021/11/17 06:42:18;;;;;;;26.17;13.63;;;;;;;7.09;74.87;100207.13;4809454;29;20138;-61
2021/11/17 06:44:48;;;;;;;28.00;14.23;;;;;;;7.08;74.81;100219.81;4813033;29;20039;-61
2021/11/17 06:47:18;;;;;;;24.73;12.95;;;;;;;7.09;74.77;100216.44;4814676;29;20051;-61
2021/11/17 06:49:47;;;;;;;15.25;7.57;;;;;;;7.10;74.96;100223.22;4809674;29;20047;-62
2021/11/17 06:52:20;;;;;;;25.40;13.00;;;;;;;7.10;75.45;100218.16;4809793;29;20055;-61
2021/11/17 06:54:50;;;;;;;27.10;13.57;;;;;;;7.10;75.07;100225.78;4811553;29;20069;-62
2021/11/17 06:57:21;;;;;;;27.40;12.60;;;;;;;7.10;74.81;100225.78;4814403;29;20414;-65
2021/11/17 06:59:51;;;;;;;28.45;14.07;;;;;;;7.09;75.13;100221.50;4810242;29;20444;-61
2021/11/17 07:02:23;;;;;;;24.00;11.15;;;;;;;6.90;75.22;100188.94;4810763;29;20142;-62
2021/11/17 07:04:52;;;;;;;22.80;10.73;;;;;;;7.06;75.40;100221.44;4809272;29;20070;-61
2021/11/17 07:07:21;;;;;;;16.33;9.23;;;;;;;7.04;75.21;100228.16;4813364;29;20057;-62
2021/11/17 07:09:50;;;;;;;26.52;13.50;;;;;;;7.03;75.29;100216.31;4823736;29;20046;-61
2021/11/17 07:12:21;;;;;;;27.65;12.98;;;;;;;7.09;75.33;100234.19;4810169;29;20517;-61
2021/11/17 07:14:51;;;;;;;29.60;14.38;;;;;;;7.08;75.77;100227.41;4817381;29;20066;-61
2021/11/17 07:17:20;;;;;;;25.48;12.93;;;;;;;7.06;75.45;100226.50;4808859;29;20693;-61
2021/11/17 07:19:50;;;;;;;26.92;14.32;;;;;;;7.07;75.56;100223.16;4821021;29;20054;-61
2021/11/17 07:22:20;;;;;;;28.20;13.13;;;;;;;7.02;75.44;100224.72;4816119;29;20043;-61
2021/11/17 07:24:49;;;;;;;28.55;14.73;;;;;;;7.04;75.34;100223.09;4808302;29;20107;-61
2021/11/17 07:27:22;;;;;;;30.75;14.00;;;;;;;7.06;75.25;100229.03;4817890;29;20103;-61
2021/11/17 07:29:55;;;;;;;29.25;14.90;;;;;;;7.02;75.26;100224.72;4822041;29;20137;-62
2021/11/17 07:32:27;;;;;;;30.60;14.02;;;;;;;7.09;75.84;100231.66;4811041;29;20383;-61
2021/11/17 07:34:56;;;;;;;31.30;14.45;;;;;;;7.06;75.29;100223.97;4810165;29;20074;-61
2021/11/17 07:37:25;;;;;;;25.42;14.23;;;;;;;7.02;74.95;100230.66;4820412;29;20574;-63
2021/11/17 07:39:55;;;;;;;28.08;15.02;;;;;;;7.02;74.54;100229.81;4814134;29;20129;-61
2021/11/17 07:42:24;;;;;;;26.75;13.93;;;;;;;7.00;74.93;100228.91;4831166;29;20053;-61
2021/11/17 07:44:59;;;;;;;26.02;14.07;;;;;;;7.01;75.49;100223.00;4818469;29;20069;-61
2021/11/17 07:47:28;;;;;;;27.35;12.88;;;;;;;6.94;74.92;100227.09;4810692;29;20054;-61
2021/11/17 07:49:57;;;;;;;29.47;15.47;;;;;;;6.98;75.24;100228.03;4807706;29;20066;-61
2021/11/17 07:52:26;;;;;;;27.30;14.23;;;;;;;6.98;75.73;100222.97;4814707;29;20316;-61
2021/11/17 07:54:55;;;;;;;28.75;14.52;;;;;;;7.02;75.15;100229.81;4811206;29;20317;-61
2021/11/17 07:57:24;;;;;;;21.08;11.48;;;;;;;6.84;74.88;100189.66;4810235;29;20061;-61
2021/11/17 07:59:54;;;;;;;31.38;15.07;;;;;;;7.04;74.94;100233.22;4806039;29;20143;-61
2021/11/17 08:02:25;;;;;;;;;;;;;;;7.04;74.71;100228.16;4806259;29;20079;-61
2021/11/17 08:04:55;;;;;;;26.05;13.02;;;;;;;7.05;74.49;100224.81;4818854;29;19925;-62
2021/11/17 08:07:24;;;;;;;23.42;11.35;;;;;;;7.06;74.19;100218.91;4812998;29;20421;-64
2021/11/17 08:09:54;;;;;;;23.70;13.25;;;;;;;7.06;73.88;100227.38;4816594;29;20043;-61
2021/11/17 08:12:29;;;;;;;27.30;13.10;;;;;;;7.14;74.38;100232.63;4809267;29;20490;-61
2021/11/17 08:14:58;;;;;;;29.75;13.95;;;;;;;6.54;74.06;100128.97;4808225;29;20047;-62
2021/11/17 08:17:32;;;;;;;25.13;13.35;;;;;;;7.09;74.47;100231.66;4806770;29;20067;-61
2021/11/17 08:20:06;;;;;;;18.00;8.68;;;;;;;7.18;73.89;100236.94;4807991;29;20062;-61
2021/11/17 08:22:36;;;;;;;28.05;13.35;;;;;;;7.21;73.90;100235.31;4806952;29;20142;-61
2021/11/17 08:25:13;;;;;;;24.88;11.65;;;;;;;7.23;73.25;100236.22;4819144;29;20054;-61
2021/11/17 08:27:42;;;;;;;24.17;12.82;;;;;;;7.18;73.47;100242.88;4807877;29;20104;-61
2021/11/17 08:30:13;;;;;;;17.60;8.93;;;;;;;7.02;73.41;100210.38;4814528;29;20081;-61
2021/11/17 08:32:45;;;;;;;21.48;12.38;;;;;;;7.19;73.40;100256.41;4813189;29;20505;-61
2021/11/17 08:35:17;;;;;;;29.45;13.80;;;;;;;7.18;73.56;100253.03;4817263;29;20057;-61
2021/11/17 08:37:47;;;;;;;23.25;12.82;;;;;;;7.14;73.85;100240.22;4807241;29;20082;-62
2021/11/17 08:40:19;;;;;;;26.52;14.32;;;;;;;7.20;73.80;100247.97;4816245;29;20051;-61
2021/11/17 08:42:48;;;;;;;24.77;13.38;;;;;;;7.28;73.79;100246.47;4806978;29;20079;-61
2021/11/17 08:45:18;;;;;;;25.92;13.02;;;;;;;7.26;73.20;100248.97;4809929;29;20078;-61
2021/11/17 08:47:50;;;;;;;25.23;12.25;;;;;;;7.24;73.37;100248.09;4814844;29;20133;-61
2021/11/17 08:50:22;;;;;;;25.98;13.38;;;;;;;7.26;73.44;100255.72;4814299;29;20047;-61
2021/11/17 08:52:53;;;;;;;24.98;13.50;;;;;;;7.10;73.45;100223.22;4809915;29;20133;-62
2021/11/17 08:55:26;;;;;;;22.33;12.18;;;;;;;7.22;73.43;100244.63;4810923;29;20459;-62
2021/11/17 08:57:55;;;;;;;22.25;13.02;;;;;;;7.26;73.47;100250.66;4819356;29;20046;-61
2021/11/17 09:00:26;;;;;;;27.50;14.68;;;;;;;7.10;73.45;100213.09;4817879;29;20058;-61
2021/11/17 09:02:58;;;;;;;23.33;12.38;;;;;;;7.29;73.37;100246.47;4833931;29;20076;-61
2021/11/17 09:05:31;;;;;;;25.13;13.07;;;;;;;7.33;72.98;100247.41;4816805;29;20142;-62
2021/11/17 09:08:01;;;;;;;26.17;12.88;;;;;;;7.36;72.97;100247.50;4810952;29;20050;-61
2021/11/17 09:10:32;;;;;;;27.80;14.27;;;;;;;7.38;73.18;100250.91;4830645;29;20095;-61
2021/11/17 09:13:02;;;;;;;26.77;12.85;;;;;;;7.37;72.73;100250.06;4820835;29;20051;-61
2021/11/17 09:15:33;;;;;;;23.27;12.73;;;;;;;7.38;73.08;100261.06;4822684;29;20103;-61
2021/11/17 09:18:05;;;;;;;24.95;13.45;;;;;;;7.31;73.52;100251.63;4813540;29;20130;-61
2021/11/17 09:20:35;;;;;;;27.45;12.95;;;;;;;7.40;73.08;100255.19;4807804;29;20127;-61
2021/11/17 09:23:05;;;;;;;24.15;13.10;;;;;;;7.44;72.77;100256.97;4811308;29;20134;-61
2021/11/17 09:25:35;;;;;;;24.50;13.23;;;;;;;7.22;72.81;100218.41;4812927;29;20051;-62
2021/11/17 09:28:05;;;;;;;23.58;13.00;;;;;;;7.37;73.50;100259.34;4822455;29;20043;-61
2021/11/17 09:30:36;;;;;;;31.02;14.18;;;;;;;7.43;73.41;100262.03;4809374;29;20082;-61
2021/11/17 09:33:10;;;;;;;30.05;14.57;;;;;;;7.48;72.82;100250.28;4806533;29;20046;-61
2021/11/17 09:35:39;;;;;;;27.38;13.05;;;;;;;7.51;73.70;100254.56;4805271;29;20111;-62
2021/11/17 09:38:10;;;;;;;27.52;15.07;;;;;;;7.47;73.18;100237.53;4815422;29;20060;-61
2021/11/17 09:40:42;;;;;;;33.78;15.82;;;;;;;7.54;73.22;100249.53;4820145;29;20073;-61
2021/11/17 09:43:15;;;;;;;32.70;16.13;;;;;;;7.52;73.56;100239.34;4810874;29;20134;-61
2021/11/17 09:45:48;;;;;;;31.75;15.75;;;;;;;7.52;73.75;100244.44;4815449;29;20039;-63
2021/11/17 09:48:22;;;;;;;28.00;14.63;;;;;;;7.54;73.54;100247.84;4810151;29;20051;-60
2021/11/17 09:50:56;;;;;;;30.40;15.98;;;;;;;7.58;73.74;100249.66;4820646;29;20129;-61
2021/11/17 09:53:27;;;;;;;31.42;16.35;;;;;;;7.57;73.69;100247.94;4828112;29;20042;-61
2021/11/17 09:56:01;;;;;;;31.23;16.60;;;;;;;7.62;73.59;100248.88;4827987;29;20062;-61
2021/11/17 09:58:35;;;;;;;33.47;15.65;;;;;;;7.56;74.15;100245.38;4812802;29;20459;-61
2021/11/17 10:01:11;;;;;;;34.72;17.33;;;;;;;7.33;74.06;100209.34;4811075;29;20099;-61
2021/11/17 10:03:54;;;;;;;32.88;15.60;;;;;;;7.57;74.75;100252.16;4813932;29;20051;-62
2021/11/17 10:12:06;;;;;;;32.55;16.42;;;;;;;7.58;74.26;100246.25;4811442;29;20051;-62
2021/11/17 10:14:42;;;;;;;32.22;15.80;;;;;;;7.59;73.86;100241.19;4817088;29;20082;-62
2021/11/17 10:17:32;;;;;;;34.08;17.33;;;;;;;7.55;74.48;100243.63;4814487;29;20051;-62
2021/11/17 10:20:11;;;;;;;31.02;15.75;;;;;;;7.53;74.24;100232.59;4812404;29;20438;-64
2021/11/17 10:22:41;;;;;;;29.38;16.30;;;;;;;7.60;74.37;100242.91;4813972;29;20050;-66
2021/11/17 10:25:12;;;;;;;28.05;14.77;;;;;;;7.49;74.43;100218.97;4818085;29;20055;-62
2021/11/17 10:27:50;;;;;;;33.58;15.68;;;;;;;7.50;74.31;100235.94;4812499;29;20062;-62
2021/11/17 10:30:30;;;;;;;35.53;17.83;;;;;;;7.56;74.14;100242.84;4813903;29;20137;-62
2021/11/17 10:33:07;;;;;;;22.27;12.52;;;;;;;7.49;74.64;100239.28;4820125;29;20051;-62
2021/11/17 10:35:39;;;;;;;29.30;14.98;;;;;;;7.41;74.21;100233.22;4823360;29;20050;-63
2021/11/17 10:38:11;;;;;;;26.88;14.57;;;;;;;7.49;74.36;100238.41;4818729;29;20054;-62
2021/11/17 10:40:49;;;;;;;32.00;15.63;;;;;;;7.45;74.41;100242.59;4823398;29;20057;-62
2021/11/17 10:43:20;;;;;;;31.67;15.98;;;;;;;7.48;74.27;100241.81;4816114;29;20042;-62
2021/11/17 10:46:08;;;;;;;32.97;15.93;;;;;;;7.52;74.23;100241.03;4816983;29;20082;-62
2021/11/17 10:48:39;;;;;;;28.83;14.93;;;;;;;7.57;73.98;100247.94;4817417;29;20106;-62
2021/11/17 10:51:15;;;;;;;24.42;12.30;;;;;;;7.51;74.23;100224.94;4811776;29;20376;-62
2021/11/17 10:53:49;;;;;;;30.75;15.15;;;;;;;7.40;74.56;100226.41;4813685;29;20086;-62
2021/11/17 10:56:21;;;;;;;34.10;16.27;;;;;;;7.43;74.79;100234.09;4815040;29;20515;-62
2021/11/17 10:58:58;;;;;;;28.17;13.57;;;;;;;7.41;74.71;100230.66;4818396;29;20087;-62
2021/11/17 11:01:33;;;;;;;30.95;15.43;;;;;;;7.22;74.70;100198.13;4818729;29;20137;-62
2021/11/17 11:04:07;;;;;;;32.58;16.20;;;;;;;7.34;74.85;100223.75;4818678;29;20494;-66
2021/11/17 11:06:41;;;;;;;29.75;16.20;;;;;;;7.42;74.93;100228.16;4813937;29;20058;-62
2021/11/17 11:09:14;;;;;;;28.05;14.10;;;;;;;7.39;75.93;100227.22;4815584;29;20116;-62
2021/11/17 11:11:47;;;;;;;30.52;15.25;;;;;;;7.43;76.05;100213.78;4811035;29;20494;-61
2021/11/17 11:14:20;;;;;;;33.63;16.35;;;;;;;7.40;76.30;100223.88;4809633;29;20047;-61
2021/11/17 11:16:50;;;;;;;33.08;16.77;;;;;;;7.40;76.33;100209.50;4811766;29;20073;-62
2021/11/17 11:19:29;;;;;;;30.90;17.02;;;;;;;7.47;75.33;100219.75;4819215;29;20054;-62
2021/11/17 11:22:09;;;;;;;26.83;13.23;;;;;;;7.45;75.45;100207.03;4810429;29;20071;-64
2021/11/17 11:24:40;;;;;;;38.13;18.15;;;;;;;7.49;76.02;100196.13;4822848;29;20338;-62
2021/11/17 11:27:18;;;;;;;35.15;16.10;;;;;;;7.45;75.75;100191.81;4816877;29;20049;-62
2021/11/17 11:29:49;;;;;;;33.72;17.17;;;;;;;7.48;75.78;100186.81;4817247;29;20065;-62
2021/11/17 11:32:40;;;;;;;31.98;16.80;;;;;;;7.51;75.34;100201.25;4810765;29;20053;-63
2021/11/17 11:35:21;;;;;;;34.72;16.58;;;;;;;7.56;76.00;100197.94;4819811;29;20057;-62
2021/11/17 11:38:05;;;;;;;32.83;16.15;;;;;;;7.63;76.34;100196.41;4819475;29;20046;-62
2021/11/17 11:40:57;;;;;;;30.90;16.27;;;;;;;7.63;76.48;100192.16;4813621;29;20061;-63
2021/11/17 11:43:27;;;;;;;34.05;17.45;;;;;;;7.57;75.89;100189.50;4808537;29;20051;-61
2021/11/17 11:45:56;;;;;;;30.70;16.08;;;;;;;7.60;75.74;100186.19;4817048;29;20053;-62
2021/11/17 11:48:35;;;;;;;;;;;;;;;7.66;75.86;100176.13;4812983;29;20051;-62
2021/11/17 11:51:29;;;;;;;35.75;18.27;;;;;;;7.62;75.83;100170.13;4811366;29;19925;-61
2021/11/17 11:54:16;;;;;;;35.70;18.92;;;;;;;7.66;75.73;100176.97;4823358;29;20047;-62
2021/11/17 11:56:52;;;;;;;34.45;17.90;;;;;;;7.55;75.36;100158.16;4815547;29;20054;-62
2021/11/17 11:59:27;;;;;;;38.63;19.08;;;;;;;7.70;76.15;100181.28;4811866;29;20066;-62
2021/11/17 12:02:08;;;;;;;38.42;18.00;;;;;;;7.74;75.92;100179.66;4811088;29;20741;-61
2021/11/17 12:04:48;;;;;;;35.25;17.95;;;;;;;7.52;75.69;100137.78;4811489;29;20117;-62
2021/11/17 12:07:21;;;;;;;34.78;16.70;;;;;;;7.60;75.37;100156.56;4807139;29;20077;-62
2021/11/17 12:10:11;;;;;;;31.15;16.38;;;;;;;7.74;75.09;100175.44;4805595;29;20077;-62
2021/11/17 12:12:43;;;;;;;29.55;14.93;;;;;;;7.60;75.70;100148.94;4812315;29;20043;-62
2021/11/17 12:15:29;;;;;;;33.08;16.92;;;;;;;7.88;74.67;100184.19;4808966;29;20118;-62
2021/11/17 12:18:12;;;;;;;35.75;17.48;;;;;;;7.86;75.73;100175.66;4812963;29;20074;-62
2021/11/17 12:20:46;;;;;;;33.35;17.60;;;;;;;7.91;75.40;100174.06;4814411;29;20394;-62
2021/11/17 12:23:21;;;;;;;36.13;17.77;;;;;;;7.78;75.29;100161.97;4816762;29;20772;-62
2021/11/17 12:26:07;;;;;;;29.42;16.17;;;;;;;7.77;75.63;100159.41;4809636;29;20127;-65
2021/11/17 12:28:44;;;;;;;31.80;15.80;;;;;;;7.82;75.03;100173.88;4806789;29;20459;-62
2021/11/17 12:31:20;;;;;;;33.53;15.93;;;;;;;7.80;75.35;100170.47;4815110;29;20050;-61
2021/11/17 12:33:56;;;;;;;30.27;16.88;;;;;;;7.75;74.86;100169.53;4818427;29;20054;-62
2021/11/17 12:36:33;;;;;;;31.30;16.33;;;;;;;7.72;75.52;100172.03;4812376;29;20089;-62
2021/11/17 12:39:10;;;;;;;31.85;14.98;;;;;;;7.78;75.29;100172.13;4819229;29;20125;-62
2021/11/17 12:41:41;;;;;;;30.58;15.80;;;;;;;7.73;75.46;100172.84;4817352;29;20455;-62
2021/11/17 12:44:27;;;;;;;31.80;15.88;;;;;;;7.81;75.37;100177.28;4807241;29;20498;-62
2021/11/17 12:47:04;;;;;;;30.05;15.38;;;;;;;7.82;75.37;100175.59;4815050;29;20046;-62
2021/11/17 12:49:39;;;;;;;29.27;16.13;;;;;;;7.03;75.05;100036.16;4814008;29;20054;-61
2021/11/17 12:52:13;;;;;;;34.55;16.95;;;;;;;7.76;75.59;100173.78;4816484;29;20085;-62
2021/11/17 12:54:47;;;;;;;32.60;16.88;;;;;;;7.78;75.04;100167.03;4807810;29;20050;-61
2021/11/17 12:57:21;;;;;;;33.65;16.80;;;;;;;7.80;74.69;100175.53;4812775;29;20053;-62
2021/11/17 13:00:11;;;;;;;33.90;16.35;;;;;;;7.79;75.03;100166.22;4830968;29;20054;-62
2021/11/17 13:02:46;;;;;;;34.58;16.60;;;;;;;7.80;75.51;100162.84;4821345;29;20047;-66
2021/11/17 13:05:23;;;;;;;35.70;16.50;;;;;;;7.86;75.64;100165.50;4815273;29;20054;-61
2021/11/17 13:07:58;;;;;;;34.88;18.25;;;;;;;7.86;74.63;100160.44;4809285;29;20043;-62
2021/11/17 13:10:32;;;;;;;33.97;17.13;;;;;;;7.88;75.27;100158.75;4815365;29;20046;-62
2021/11/17 13:13:10;;;;;;;35.38;16.98;;;;;;;7.95;75.17;100160.56;4815633;29;20049;-62
2021/11/17 13:15:43;;;;;;;34.60;17.17;;;;;;;8.03;74.98;100159.03;4806119;29;20062;-62
2021/11/17 13:18:27;;;;;;;32.83;16.65;;;;;;;8.02;74.25;100161.53;4807508;29;20050;-62
2021/11/17 13:21:15;;;;;;;34.17;18.17;;;;;;;7.94;74.93;100158.84;4820441;29;20099;-61
2021/11/17 13:23:48;;;;;;;38.03;17.38;;;;;;;7.94;74.88;100156.31;4823013;29;20106;-62
2021/11/17 13:26:27;;;;;;;32.65;16.85;;;;;;;8.06;75.09;100161.59;4815662;29;20047;-62
2021/11/17 13:29:19;;;;;;;32.90;15.65;;;;;;;8.12;74.45;100163.41;4813334;29;20088;-61
2021/11/17 13:31:49;;;;;;;35.13;15.80;;;;;;;8.15;74.59;100168.53;4809359;29;20042;-62
2021/11/17 13:34:31;;;;;;;33.38;17.48;;;;;;;8.22;74.19;100174.59;4809723;29;20410;-62
2021/11/17 13:37:23;;;;;;;33.25;17.25;;;;;;;8.26;74.34;100166.16;4819321;29;20058;-62
2021/11/17 13:40:00;;;;;;;31.10;15.63;;;;;;;8.31;74.22;100167.13;4814290;29;20103;-62
2021/11/17 13:42:30;;;;;;;35.20;16.75;;;;;;;8.26;73.97;100171.25;4824482;29;20413;-62
2021/11/17 13:45:02;;;;;;;37.90;17.13;;;;;;;8.31;73.33;100170.53;4814801;29;20051;-62
2021/11/17 13:47:33;;;;;;;33.55;16.08;;;;;;;8.33;74.13;100173.09;4817747;29;20545;-62
2021/11/17 13:50:05;;;;;;;29.88;15.95;;;;;;;8.32;74.43;100173.94;4808635;29;20054;-62
2021/11/17 13:52:36;;;;;;;32.35;17.00;;;;;;;8.26;73.85;100167.06;4809281;29;20047;-62
2021/11/17 13:55:08;;;;;;;30.90;16.65;;;;;;;8.21;73.70;100166.09;4819739;29;20092;-62
2021/11/17 13:57:38;;;;;;;34.15;17.33;;;;;;;8.18;73.94;100162.66;4818253;29;20445;-62
2021/11/17 14:00:10;;;;;;;;;;;;;;;8.28;74.53;100159.47;4821445;29;20085;-62
2021/11/17 14:02:40;;;;;;;31.98;15.98;;;;;;;8.25;74.62;100156.84;4819414;29;20283;-62
2021/11/17 14:05:10;;;;;;;31.23;16.48;;;;;;;8.28;74.20;100159.47;4817542;29;20038;-62
2021/11/17 14:07:39;;;;;;;32.28;16.55;;;;;;;8.28;74.02;100154.38;4833458;29;20052;-62
2021/11/17 14:10:11;;;;;;;36.13;16.88;;;;;;;8.33;73.71;100157.84;4816721;29;20043;-61
2021/11/17 14:12:40;;;;;;;32.42;16.58;;;;;;;8.18;74.57;100152.50;4829304;29;20038;-62
2021/11/17 14:15:12;;;;;;;;;;;;;;;8.15;73.84;100152.44;4812971;29;20466;-66
2021/11/17 14:17:41;;;;;;;32.45;16.42;;;;;;;8.11;74.64;100147.28;4812556;29;19928;-62
2021/11/17 14:20:11;;;;;;;33.90;16.38;;;;;;;8.17;74.86;100148.22;4821393;29;20042;-62
2021/11/17 14:22:41;;;;;;;35.38;17.30;;;;;;;8.24;74.98;100147.50;4805527;29;20078;-62
2021/11/17 14:25:16;;;;;;;31.50;16.73;;;;;;;8.16;74.20;100154.16;4807589;29;20081;-62
2021/11/17 14:27:49;;;;;;;35.63;18.58;;;;;;;8.02;75.65;100152.22;4808967;29;20118;-63
2021/11/17 14:30:32;;;;;;;34.60;18.08;;;;;;;8.07;75.49;100155.69;4812991;29;20125;-62
2021/11/17 14:33:04;;;;;;;31.77;17.15;;;;;;;8.10;75.69;100165.94;4827627;29;20050;-62
2021/11/17 14:35:33;;;;;;;37.90;19.52;;;;;;;8.16;74.90;100159.25;4821434;29;20112;-62
2021/11/17 14:38:02;;;;;;;37.42;18.70;;;;;;;8.13;74.88;100164.25;4819410;29;20051;-62
2021/11/17 14:40:32;;;;;;;36.50;19.45;;;;;;;7.94;74.87;100153.78;4821111;29;20045;-62